Time;durP1;ratioP1;P1;durP2;ratioP2;P2;SDS_P1;SDS_P2;PMS_P1;PMS_P2;Temp;Humidity;BMP_temperature;BMP_pressure;BME280_temperature;BME280_humidity;BME280_pressure;Samples;Min_cycle;Max_cycle;Signal;HPM_P1;HPM_P2
2021/08/20 00:55:20;;;;;;;;;;;;;;;;;;;;;
2021/08/20 00:57:55;;;;;;;;;21.25;21.25;;;;;32.59;38.27;100754.59;144174;666;131012;-81
2021/08/20 01:00:29;;;;;;;;;21.25;21.00;;;;;32.62;38.68;100753.38;144153;569;131912;-82
2021/08/20 01:03:03;;;;;;;;;23.50;22.50;;;;;32.51;39.02;100751.97;144148;566;132010;-82
2021/08/20 01:05:40;;;;;;;;;24.50;24.50;;;;;32.47;38.78;100751.50;144153;574;131912;-78
2021/08/20 01:09:09;;;;;;;;;;;;;;;;;;;;;
2021/08/20 01:15:16;;;;;;;;;21.25;20.00;;;;;32.63;38.60;100739.63;144168;600;132012;-80
2021/08/20 01:17:50;;;;;;;;;23.50;23.50;;;;;32.65;38.07;100736.69;144149;572;132013;-78
2021/08/20 01:20:24;;;;;;;;;22.75;22.00;;;;;32.25;38.84;100736.97;144168;580;132014;-80
2021/08/20 01:22:58;;;;;;;;;26.25;26.25;;;;;32.52;38.37;100726.47;144166;584;131908;-81
2021/08/20 01:25:34;;;;;;;;;25.75;22.75;;;;;32.51;38.44;100728.34;144172;583;132010;-74
2021/08/20 01:28:11;;;;;;;;;22.00;22.00;;;;;32.50;38.37;100729.38;144160;581;131908;-78
2021/08/20 01:30:45;;;;;;;;;23.50;21.75;;;;;32.44;38.60;100732.84;144158;602;132012;-75
2021/08/20 01:37:02;;;;;;;;;26.00;23.50;;;;;32.33;39.17;100726.00;144172;602;131020;-75
2021/08/20 01:39:36;;;;;;;;;22.50;22.50;;;;;32.22;39.32;100729.19;144152;597;132013;-74
2021/08/20 01:42:10;;;;;;;;;27.00;25.00;;;;;32.30;39.37;100729.09;144166;628;132014;-73
2021/08/20 01:44:44;;;;;;;;;23.25;23.25;;;;;32.25;39.41;100722.53;144154;653;131909;-78
2021/08/20 01:47:19;;;;;;;;;19.50;17.00;;;;;32.38;39.42;100725.44;144168;572;131021;-80
2021/08/20 01:49:54;;;;;;;;;23.00;23.00;;;;;32.22;39.25;100732.75;144157;668;132907;-80
2021/08/20 01:52:27;;;;;;;;;22.50;22.50;;;;;32.43;39.44;100730.34;144169;583;132012;-74
2021/08/20 01:55:01;;;;;;;;;21.25;21.00;;;;;32.38;39.47;100736.31;144152;566;131909;-78
2021/08/20 01:57:35;;;;;;;;;22.00;22.00;;;;;32.34;39.62;100729.56;144157;583;132008;-78
2021/08/20 02:00:15;;;;;;;;;21.00;21.00;;;;;32.37;39.07;100734.66;144157;564;131016;-79
2021/08/20 02:02:49;;;;;;;;;24.00;23.00;;;;;32.34;39.27;100741.28;144173;596;132011;-73
2021/08/20 02:05:23;;;;;;;;;23.75;23.25;;;;;32.39;38.87;100732.56;144154;579;132014;-77
2021/08/20 02:07:57;;;;;;;;;22.25;22.25;;;;;32.34;38.88;100735.00;144166;736;132010;-74
2021/08/20 02:10:31;;;;;;;;;23.25;23.00;;;;;32.34;39.15;100729.56;144151;575;132909;-80
2021/08/20 02:13:05;;;;;;;;;25.75;25.50;;;;;32.38;38.95;100731.75;144170;581;133012;-77
2021/08/20 02:15:39;;;;;;;;;22.50;22.50;;;;;32.48;39.05;100741.47;144164;599;131020;-76
2021/08/20 02:18:13;;;;;;;;;20.50;20.50;;;;;32.42;38.68;100742.22;144164;597;132021;-79
2021/08/20 02:20:47;;;;;;;;;24.00;22.25;;;;;32.42;39.20;100743.06;144145;565;132014;-73
2021/08/20 02:23:21;;;;;;;;;23.00;22.00;;;;;32.36;39.03;100730.22;144151;581;131045;-73
2021/08/20 02:25:55;;;;;;;;;25.25;24.75;;;;;32.30;39.24;100748.13;144148;666;132012;-72
2021/08/20 02:28:29;;;;;;;;;25.25;25.25;;;;;32.32;39.15;100739.78;144179;681;131014;-72
2021/08/20 02:31:03;;;;;;;;;25.00;25.00;;;;;32.10;39.54;100738.78;144155;665;132011;-72
2021/08/20 02:33:40;;;;;;;;;25.00;24.25;;;;;32.24;39.29;100740.69;144175;571;132010;-73
2021/08/20 02:36:14;;;;;;;;;24.25;24.25;;;;;32.32;39.40;100739.78;144156;632;131908;-72
2021/08/20 02:38:49;;;;;;;;;22.25;21.50;;;;;32.48;38.57;100747.75;144174;659;132020;-73
2021/08/20 02:41:24;;;;;;;;;24.25;23.50;;;;;32.51;38.63;100744.66;144161;622;132039;-73
2021/08/20 02:43:59;;;;;;;;;25.50;22.00;;;;;32.49;38.97;100748.59;144178;665;131020;-73
2021/08/20 02:46:32;;;;;;;;;23.00;23.00;;;;;32.63;38.66;100749.63;144157;576;131014;-71
2021/08/20 02:49:06;;;;;;;;;26.25;23.25;;;;;32.69;38.25;100754.31;144158;605;132010;-74
2021/08/20 02:51:40;;;;;;;;;24.25;21.50;;;;;32.71;38.41;100755.84;144153;583;131909;-74
2021/08/20 02:54:14;;;;;;;;;22.25;21.00;;;;;32.82;38.01;100765.41;144177;615;132010;-72
2021/08/20 02:56:48;;;;;;;;;22.00;22.00;;;;;32.80;38.27;100762.03;144155;611;131908;-72
2021/08/20 02:59:22;;;;;;;;;21.25;21.25;;;;;32.30;39.76;100763.56;144171;599;131020;-79
2021/08/20 03:01:58;;;;;;;;;25.75;23.00;;;;;32.75;38.37;100764.44;144158;584;131909;-79
2021/08/20 03:04:31;;;;;;;;;27.50;25.25;;;;;32.83;38.21;100766.25;144175;681;131020;-78
2021/08/20 03:07:06;;;;;;;;;23.00;22.00;;;;;32.76;38.47;100766.16;144163;587;132018;-81
2021/08/20 03:09:40;;;;;;;;;20.25;19.75;;;;;32.70;38.64;100770.47;144176;686;132014;-78
2021/08/20 03:12:14;;;;;;;;;25.25;21.75;;;;;32.78;38.45;100769.53;144154;647;131851;-75
2021/08/20 03:14:47;;;;;;;;;27.75;24.50;;;;;32.68;38.89;100772.50;144156;585;132012;-76
2021/08/20 03:17:21;;;;;;;;;25.75;24.00;;;;;32.69;38.63;100779.59;144145;581;132014;-73
2021/08/20 03:19:55;;;;;;;;;20.75;20.00;;;;;32.62;38.80;100775.97;144169;577;131020;-75
2021/08/20 03:22:29;;;;;;;;;19.75;19.75;;;;;32.60;38.88;100783.44;144150;565;132917;-76
2021/08/20 03:25:03;;;;;;;;;24.75;23.50;;;;;32.53;38.84;100783.38;144166;592;131023;-76
2021/08/20 03:27:37;;;;;;;;;24.25;23.50;;;;;32.61;38.68;100779.69;144145;569;132012;-82
2021/08/20 03:30:11;;;;;;;;;21.50;21.00;;;;;32.70;38.71;100772.34;144171;592;132010;-79
2021/08/20 03:32:45;;;;;;;;;22.00;20.75;;;;;32.83;38.57;100772.50;144166;619;131909;-78
2021/08/20 03:35:19;;;;;;;;;24.50;21.75;;;;;32.98;38.06;100768.94;144169;626;131020;-79
2021/08/20 03:37:54;;;;;;;;;21.00;21.00;;;;;32.98;38.00;100774.38;144143;601;132908;-77
2021/08/20 03:40:38;;;;;;;;;22.25;22.00;;;;;32.96;38.27;100779.16;144148;605;132010;-74
2021/08/20 03:43:22;;;;;;;;;23.50;23.00;;;;;32.92;38.40;100783.28;144156;571;131910;-74
2021/08/20 03:46:04;;;;;;;;;29.50;25.75;;;;;32.80;38.15;100788.38;144168;622;132014;-77
2021/08/20 03:48:49;;;;;;;;;21.25;20.50;;;;;32.68;38.36;100785.22;144149;566;132018;-73
2021/08/20 03:51:27;;;;;;;;;25.25;23.25;;;;;32.62;37.79;100788.72;144172;573;132012;-72
2021/08/20 03:54:01;;;;;;;;;25.25;24.00;;;;;32.53;38.19;100794.25;144151;635;132012;-73
2021/08/20 03:56:44;;;;;;;;;26.00;25.00;;;;;32.47;38.15;100786.81;144170;677;132008;-75
2021/08/20 03:59:18;;;;;;;;;21.00;19.50;;;;;32.48;38.36;100796.66;144157;614;132015;-78
2021/08/20 04:01:53;;;;;;;;;21.50;21.50;;;;;32.46;38.49;100795.16;144164;619;132014;-75
2021/08/20 04:04:27;;;;;;;;;25.25;24.25;;;;;32.48;38.38;100796.66;144152;741;131908;-79
2021/08/20 04:07:03;;;;;;;;;33.00;27.00;;;;;32.49;38.55;100792.91;144155;574;131020;-75
2021/08/20 04:09:37;;;;;;;;;26.00;22.75;;;;;32.52;38.43;100802.53;144142;574;132012;-78
2021/08/20 04:12:11;;;;;;;;;23.75;23.25;;;;;32.33;38.90;100799.34;144175;640;132010;-77
2021/08/20 04:14:46;;;;;;;;;25.25;23.50;;;;;32.27;38.58;100804.66;144141;638;132013;-78
2021/08/20 04:17:20;;;;;;;;;26.00;25.00;;;;;32.21;39.35;100804.38;144168;614;132014;-84
2021/08/20 04:19:56;;;;;;;;;28.50;27.50;;;;;32.01;39.16;100808.59;144148;570;132020;-75
2021/08/20 04:22:29;;;;;;;;;25.25;22.75;;;;;32.12;39.06;100810.03;144166;750;132011;-76
2021/08/20 04:25:03;;;;;;;;;26.00;26.00;;;;;32.14;38.92;100810.69;144163;579;132012;-78
2021/08/20 04:27:41;;;;;;;;;26.50;25.25;;;;;32.10;39.32;100812.94;144164;594;132020;-78
2021/08/20 04:30:15;;;;;;;;;28.00;23.25;;;;;32.11;39.14;100814.62;144154;613;132909;-79
2021/08/20 04:32:50;;;;;;;;;26.50;26.25;;;;;32.09;39.23;100822.09;144156;583;131022;-73
2021/08/20 04:35:25;;;;;;;;;28.50;28.50;;;;;32.16;39.23;100824.97;144157;612;131908;-74
2021/08/20 04:38:01;;;;;;;;;27.00;24.00;;;;;32.10;39.10;100823.78;144170;713;132012;-76
2021/08/20 04:40:35;;;;;;;;;21.00;20.75;;;;;32.09;39.22;100826.69;144155;613;132014;-74
2021/08/20 04:43:10;;;;;;;;;26.75;25.25;;;;;32.02;38.90;100835.53;144173;711;132010;-74
2021/08/20 04:45:46;;;;;;;;;24.75;24.50;;;;;31.97;39.02;100842.56;144155;609;132909;-73
2021/08/20 04:48:20;;;;;;;;;28.50;25.75;;;;;31.96;38.85;100849.84;144173;589;132012;-74
2021/08/20 04:50:54;;;;;;;;;24.75;22.25;;;;;31.94;39.14;100842.91;144168;619;131908;-74
2021/08/20 04:53:33;;;;;;;;;25.75;23.25;;;;;31.98;39.21;100844.25;144177;564;131021;-73
2021/08/20 04:56:08;;;;;;;;;28.75;25.00;;;;;31.98;39.06;100845.06;144154;569;131908;-72
2021/08/20 04:58:42;;;;;;;;;27.25;25.00;;;;;31.99;39.39;100840.50;144160;614;131020;-75
2021/08/20 05:01:16;;;;;;;;;27.75;27.25;;;;;32.04;39.19;100838.06;144157;596;131014;-72
2021/08/20 05:03:50;;;;;;;;;32.00;28.25;;;;;32.10;38.89;100837.37;144176;582;132008;-75
2021/08/20 05:09:07;;;;;;;;;25.75;25.25;;;;;32.20;39.35;100832.53;144176;584;131020;-69
2021/08/20 05:11:42;;;;;;;;;24.00;23.50;;;;;32.15;39.86;100836.84;144159;624;131909;-72
2021/08/20 05:14:16;;;;;;;;;26.50;25.50;;;;;32.43;39.07;100847.16;144171;591;131021;-73
2021/08/20 05:16:50;;;;;;;;;23.75;23.75;;;;;32.47;38.66;100848.47;144167;672;132012;-73
2021/08/20 05:19:25;;;;;;;;;29.25;26.50;;;;;32.49;39.00;100849.97;144174;629;131020;-72
2021/08/20 05:21:59;;;;;;;;;26.25;26.25;;;;;32.56;39.35;100859.06;144152;630;132013;-72
2021/08/20 05:24:33;;;;;;;;;24.25;24.25;;;;;32.71;39.20;100856.41;144156;586;132008;-73
2021/08/20 05:27:09;;;;;;;;;23.00;22.50;;;;;32.85;39.28;100865.59;144143;607;132909;-72
2021/08/20 05:29:44;;;;;;;;;23.25;20.75;;;;;32.87;39.41;100866.25;144170;593;132010;-73
2021/08/20 05:32:18;;;;;;;;;25.50;24.25;;;;;33.14;38.78;100863.91;144150;629;132020;-73
2021/08/20 05:34:52;;;;;;;;;20.00;20.00;;;;;33.08;38.74;100859.25;144169;595;132010;-72
2021/08/20 05:37:26;;;;;;;;;26.00;23.75;;;;;33.14;39.17;100863.91;144140;591;132909;-75
2021/08/20 05:40:03;;;;;;;;;24.00;22.50;;;;;32.86;39.25;100869.16;144163;579;132010;-74
2021/08/20 05:42:37;;;;;;;;;24.50;23.75;;;;;33.01;39.40;100866.44;144156;566;133909;-74
2021/08/20 05:45:12;;;;;;;;;16.75;16.50;;;;;33.23;39.44;100870.97;144175;571;131021;-72
2021/08/20 05:47:47;;;;;;;;;20.75;19.75;;;;;33.45;38.88;100870.19;144152;605;132908;-74
2021/08/20 05:50:21;;;;;;;;;21.75;20.75;;;;;33.66;38.57;100874.88;144156;586;131021;-75
2021/08/20 05:52:55;;;;;;;;;21.50;21.50;;;;;33.61;38.67;100864.53;144149;617;132012;-81
2021/08/20 05:55:31;;;;;;;;;25.25;23.00;;;;;33.40;38.65;100870.78;144168;573;132010;-78
2021/08/20 05:58:05;;;;;;;;;25.75;24.75;;;;;33.16;38.94;100872.75;144152;588;132018;-79
2021/08/20 06:00:43;;;;;;;;;26.50;26.00;;;;;32.09;40.33;100873.69;144173;614;131023;-77
2021/08/20 06:03:28;;;;;;;;;25.25;23.75;;;;;33.21;38.35;100883.88;144149;578;132012;-77
2021/08/20 06:06:02;;;;;;;;;21.25;19.25;;;;;33.29;38.63;100883.00;144173;572;131021;-78
2021/08/20 06:08:36;;;;;;;;;23.25;20.25;;;;;33.45;38.66;100883.81;144162;623;131909;-77
2021/08/20 06:11:11;;;;;;;;;21.00;19.50;;;;;33.61;38.41;100880.03;144167;631;132012;-74
2021/08/20 06:13:49;;;;;;;;;22.50;22.25;;;;;34.02;37.64;100879.47;144144;586;132014;-77
2021/08/20 06:16:22;;;;;;;;;24.00;21.25;;;;;33.87;38.12;100885.81;144153;570;132010;-73
2021/08/20 06:18:56;;;;;;;;;19.00;18.75;;;;;33.97;38.20;100887.38;144152;647;132012;-75
2021/08/20 06:21:30;;;;;;;;;23.25;20.50;;;;;34.11;37.45;100889.22;144170;615;131021;-78
2021/08/20 06:24:04;;;;;;;;;23.25;21.25;;;;;34.18;37.56;100884.66;144154;605;132012;-75
2021/08/20 06:26:38;;;;;;;;;21.00;21.00;;;;;34.19;37.16;100886.34;144165;624;132014;-78
2021/08/20 06:29:12;;;;;;;;;19.50;19.25;;;;;34.14;36.96;100899.72;144149;607;132018;-79
2021/08/20 06:31:46;;;;;;;;;20.25;20.25;;;;;33.92;37.33;100896.12;144168;654;132010;-74
2021/08/20 06:34:20;;;;;;;;;17.25;16.75;;;;;33.73;36.62;100892.94;144160;570;132909;-76
2021/08/20 06:36:54;;;;;;;;;15.75;15.00;;;;;33.25;37.62;100892.56;144163;590;132021;-74
2021/08/20 06:39:29;;;;;;;;;16.75;16.75;;;;;32.92;38.22;100900.19;144152;575;131908;-74
2021/08/20 06:42:03;;;;;;;;;17.25;17.25;;;;;32.61;37.14;100903.88;144149;634;132015;-80
2021/08/20 06:48:22;;;;;;;;;16.00;15.00;;;;;31.86;39.19;100911.66;144170;570;132010;-73
2021/08/20 06:50:56;;;;;;;;;16.75;16.75;;;;;32.30;38.86;100907.50;144149;574;131909;-72
2021/08/20 06:53:30;;;;;;;;;10.50;9.75;;;;;32.25;37.84;100908.06;144166;704;132014;-72
2021/08/20 06:56:20;;;;;;;;;16.25;16.25;;;;;32.18;37.89;100907.94;144147;669;132012;-74
2021/08/20 06:58:57;;;;;;;;;16.00;15.00;;;;;32.02;38.31;100917.00;144165;571;132014;-71
2021/08/20 07:01:32;;;;;;;;;12.25;12.25;;;;;32.41;37.75;100920.69;144164;606;131908;-75
2021/08/20 07:04:08;;;;;;;;;11.50;11.50;;;;;31.80;38.65;100924.09;144166;602;132010;-74
2021/08/20 07:06:42;;;;;;;;;12.75;12.75;;;;;31.35;39.34;100929.16;144153;583;132012;-75
2021/08/20 07:09:17;;;;;;;;;13.00;13.00;;;;;31.19;39.32;100934.63;144156;630;132012;-73
2021/08/20 07:11:52;;;;;;;;;16.25;14.00;;;;;31.41;38.95;100932.19;144156;584;131016;-74
2021/08/20 07:14:26;;;;;;;;;14.25;14.25;;;;;31.76;38.50;100938.19;144176;628;131021;-74
2021/08/20 07:17:00;;;;;;;;;10.75;10.75;;;;;31.51;38.45;100947.25;144147;590;132908;-74
2021/08/20 07:19:35;;;;;;;;;8.00;8.00;;;;;30.82;39.34;100942.25;144166;617;132015;-74
2021/08/20 07:22:09;;;;;;;;;10.00;10.00;;;;;30.62;39.15;100928.25;144152;621;132019;-77
2021/08/20 07:24:59;;;;;;;;;11.00;10.00;;;;;30.30;39.66;100935.28;144162;596;132014;-74
2021/08/20 07:27:33;;;;;;;;;7.00;7.00;;;;;30.08;39.64;100966.53;144163;565;132014;-78
2021/08/20 07:30:09;;;;;;;;;9.00;9.00;;;;;30.50;39.01;100933.13;144166;583;132010;-73
2021/08/20 07:32:48;;;;;;;;;9.50;9.50;;;;;30.71;38.42;100951.63;144147;607;132012;-73
2021/08/20 07:35:22;;;;;;;;;8.00;8.00;;;;;30.62;38.17;100947.22;144152;601;132011;-73
2021/08/20 07:37:56;;;;;;;;;9.75;9.00;;;;;30.54;38.72;100941.78;144147;620;132908;-75
2021/08/20 07:55:16;;;;;;;;;10.00;10.00;;;;;30.64;37.82;100966.00;144169;670;132010;-73
2021/08/20 07:57:56;;;;;;;;;9.75;8.00;;;;;30.68;37.30;100968.19;144166;592;131017;-73
2021/08/20 08:00:32;;;;;;;;;10.25;10.25;;;;;31.13;36.60;100971.41;144174;609;132010;-75
2021/08/20 08:03:06;;;;;;;;;10.25;10.00;;;;;31.04;36.70;100973.31;144155;568;132909;-74
2021/08/20 08:05:40;;;;;;;;;6.25;6.25;;;;;30.94;36.94;100983.44;144155;564;132010;-74
2021/08/20 08:08:14;;;;;;;;;8.00;8.00;;;;;31.10;36.75;100966.34;144144;573;132908;-72
2021/08/20 08:10:50;;;;;;;;;8.75;8.75;;;;;30.72;38.07;100974.12;144168;570;132015;-72
2021/08/20 08:13:24;;;;;;;;;7.50;7.50;;;;;30.51;37.97;100966.47;144153;581;132012;-75
2021/08/20 08:15:58;;;;;;;;;7.50;7.50;;;;;30.93;37.17;100973.59;144178;599;131014;-76
2021/08/20 08:18:35;;;;;;;;;8.75;8.50;;;;;30.98;36.64;100973.94;144148;629;132015;-73
2021/08/20 08:21:09;;;;;;;;;7.25;7.25;;;;;30.75;37.14;100964.81;144168;597;132012;-74
2021/08/20 08:23:53;;;;;;;;;6.50;5.25;;;;;31.03;36.77;100987.03;144164;563;132046;-74
2021/08/20 08:26:28;;;;;;;;;11.00;10.00;;;;;30.83;36.88;100981.91;144175;603;131021;-74
2021/08/20 08:29:02;;;;;;;;;7.75;7.75;;;;;31.08;36.03;100981.91;144147;596;132014;-74
2021/08/20 08:31:36;;;;;;;;;5.00;5.00;;;;;31.53;34.65;100983.16;144150;613;132014;-74
2021/08/20 08:34:10;;;;;;;;;8.75;8.75;;;;;31.54;34.57;100979.44;144152;579;131909;-75
2021/08/20 08:36:44;;;;;;;;;8.00;7.00;;;;;31.12;35.46;100994.13;144174;593;131020;-74
2021/08/20 08:39:18;;;;;;;;;11.00;9.00;;;;;31.08;35.97;100998.19;144154;566;132909;-74
2021/08/20 08:41:52;;;;;;;;;10.00;9.25;;;;;31.18;36.12;100985.31;144172;618;132008;-72
2021/08/20 08:44:26;;;;;;;;;8.75;8.00;;;;;31.16;35.81;100983.78;144152;610;131908;-73
2021/08/20 08:47:02;;;;;;;;;9.50;9.00;;;;;31.41;35.45;100983.72;144167;610;132014;-74
2021/08/20 08:49:38;;;;;;;;;8.00;8.00;;;;;31.50;35.07;100988.97;144165;609;131017;-72
2021/08/20 08:52:14;;;;;;;;;6.00;6.00;;;;;31.37;35.77;100986.81;144176;599;131022;-72
2021/08/20 08:54:48;;;;;;;;;6.75;6.75;;;;;31.67;34.61;100997.06;144148;635;132014;-72
2021/08/20 08:57:21;;;;;;;;;8.50;8.50;;;;;31.59;34.97;100988.94;144154;580;132011;-73
2021/08/20 08:59:57;;;;;;;;;8.00;8.00;;;;;31.67;34.41;100984.38;144151;588;131908;-73
2021/08/20 09:02:33;;;;;;;;;8.00;6.75;;;;;32.33;33.48;100972.34;144167;606;132014;-73
2021/08/20 09:05:13;;;;;;;;;6.75;6.75;;;;;32.43;33.48;100970.22;144151;638;132019;-73
2021/08/20 09:07:47;;;;;;;;;9.00;9.00;;;;;31.89;34.21;100974.59;144170;583;131020;-73
2021/08/20 09:10:29;;;;;;;;;9.25;9.00;;;;;32.76;32.63;100961.84;144150;663;132011;-74
2021/08/20 09:13:07;;;;;;;;;8.75;7.50;;;;;33.06;31.99;100949.16;144171;595;131021;-73
2021/08/20 09:15:41;;;;;;;;;6.00;6.00;;;;;32.36;32.75;100966.56;144167;622;132908;-72
2021/08/20 09:18:26;;;;;;;;;4.25;4.25;;;;;31.82;33.95;100980.91;144170;600;132011;-72
2021/08/20 09:21:00;;;;;;;;;6.00;5.75;;;;;32.75;32.94;100948.44;144149;652;132012;-73
2021/08/20 09:23:34;;;;;;;;;5.75;5.75;;;;;32.93;31.75;100946.25;144153;604;132010;-72
2021/08/20 09:26:08;;;;;;;;;8.25;8.25;;;;;33.55;31.27;100939.63;144153;633;133909;-71
2021/08/20 09:28:46;;;;;;;;;9.00;9.00;;;;;33.57;30.53;100939.44;144171;610;132010;-72
2021/08/20 09:31:23;;;;;;;;;11.50;9.50;;;;;33.40;31.29;100944.25;144147;628;132014;-73
2021/08/20 09:33:57;;;;;;;;;7.25;6.75;;;;;33.35;30.58;100912.19;144175;626;131021;-71
2021/08/20 09:36:31;;;;;;;;;6.50;6.50;;;;;32.42;32.45;100927.78;144154;758;131908;-71
2021/08/20 09:39:05;;;;;;;;;8.25;6.00;;;;;33.46;30.93;100946.19;144173;605;131020;-71
2021/08/20 09:41:44;;;;;;;;;7.25;7.25;;;;;34.18;29.96;100955.47;144165;571;132013;-73
2021/08/20 09:44:29;;;;;;;;;6.00;5.75;;;;;34.51;29.70;100938.66;144169;622;132010;-72
2021/08/20 09:47:08;;;;;;;;;6.75;6.75;;;;;34.83;29.04;100936.44;144154;644;132044;-71
2021/08/20 09:50:01;;;;;;;;;7.25;6.50;;;;;34.68;29.85;100935.66;144153;599;132010;-72
2021/08/20 09:52:35;;;;;;;;;8.25;8.25;;;;;34.97;29.85;100948.28;144148;633;132909;-71
2021/08/20 09:55:10;;;;;;;;;8.00;8.00;;;;;35.15;28.61;100928.69;144166;622;132011;-72
2021/08/20 09:57:44;;;;;;;;;7.50;7.50;;;;;33.50;30.98;100935.78;144155;569;132012;-71
2021/08/20 10:00:18;;;;;;;;;6.50;5.00;;;;;33.43;32.19;100940.31;144173;584;131022;-72
2021/08/20 10:03:17;;;;;;;;;6.75;6.00;;;;;33.91;30.63;100929.84;144152;585;132012;-71
2021/08/20 10:05:51;;;;;;;;;7.00;6.00;;;;;33.10;32.08;100930.59;144172;709;131020;-72
2021/08/20 10:08:27;;;;;;;;;4.25;4.25;;;;;31.28;35.29;100921.91;144162;568;132909;-71
2021/08/20 10:18:32;;;;;;;;;7.50;7.50;;;;;33.47;31.50;100920.69;144176;518;131020;-72
2021/08/20 10:24:37;;;;;;;;;3.00;3.00;;;;;33.75;30.55;100928.16;144176;605;132015;-73
2021/08/20 10:27:13;;;;;;;;;6.75;6.75;;;;;34.69;29.31;100940.06;144157;622;132012;-73
2021/08/20 10:29:52;;;;;;;;;9.50;7.00;;;;;35.22;28.90;100937.75;144176;563;132010;-73
2021/08/20 10:32:26;;;;;;;;;10.25;8.50;;;;;35.47;27.93;100936.44;144148;734;132016;-75
2021/08/20 10:35:00;;;;;;;;;7.00;7.00;;;;;33.87;30.33;100934.84;144173;604;132014;-74
2021/08/20 10:37:35;;;;;;;;;7.75;7.75;;;;;35.03;28.56;100943.91;144168;577;132012;-73
2021/08/20 10:40:29;;;;;;;;;7.00;5.00;;;;;35.10;28.23;100947.53;144177;580;131021;-73
2021/08/20 10:43:03;;;;;;;;;6.00;6.00;;;;;35.15;28.09;100945.03;144153;566;132912;-73
2021/08/20 10:45:44;;;;;;;;;9.00;7.00;;;;;33.81;29.38;100964.69;144161;593;132010;-75
2021/08/20 10:48:21;;;;;;;;;6.00;6.00;;;;;33.39;30.09;100959.75;144155;584;132019;-72
2021/08/20 10:50:55;;;;;;;;;8.00;6.50;;;;;33.68;29.82;100959.88;144176;609;132010;-73
2021/08/20 10:53:29;;;;;;;;;6.50;6.50;;;;;33.33;30.48;100954.19;144159;692;132012;-72
2021/08/20 10:56:34;;;;;;;;;8.00;8.00;;;;;33.95;29.97;100944.75;144176;594;132020;-72
2021/08/20 10:59:08;;;;;;;;;8.50;8.50;;;;;33.78;30.71;100937.84;144158;592;132012;-73
2021/08/20 11:01:42;;;;;;;;;8.00;8.00;;;;;34.06;30.03;100933.38;144176;635;132015;-74
2021/08/20 11:04:36;;;;;;;;;7.75;6.25;;;;;34.02;30.17;100951.13;144163;573;132911;-77
2021/08/20 11:07:10;;;;;;;;;9.00;9.00;;;;;34.52;29.38;100948.53;144175;626;132010;-73
2021/08/20 11:09:46;;;;;;;;;8.25;8.00;;;;;34.47;29.81;100933.78;144159;574;132020;-72
2021/08/20 11:12:47;;;;;;;;;7.50;7.50;;;;;33.78;30.46;100956.91;144162;581;132010;-72
2021/08/20 11:15:48;;;;;;;;;5.00;5.00;;;;;34.30;28.90;100909.53;144155;626;132013;-74
2021/08/20 11:18:51;;;;;;;;;6.75;6.75;;;;;34.05;29.73;100926.25;144178;572;131029;-74
2021/08/20 11:21:47;;;;;;;;;8.25;6.75;;;;;34.77;29.06;100937.19;144158;645;132912;-73
2021/08/20 11:24:23;;;;;;;;;9.00;9.00;;;;;34.15;29.92;100944.16;144177;564;132010;-69
2021/08/20 11:27:18;;;;;;;;;7.75;6.00;;;;;33.97;30.58;100939.97;144155;722;132021;-69
2021/08/20 11:29:54;;;;;;;;;9.25;9.25;;;;;34.33;29.09;100930.94;144173;618;132014;-70
2021/08/20 11:32:28;;;;;;;;;8.25;8.25;;;;;34.90;29.01;100940.06;144170;606;132012;-70
2021/08/20 11:35:02;;;;;;;;;7.75;7.75;;;;;34.62;29.17;100944.63;144178;622;132010;-70
2021/08/20 11:37:38;;;;;;;;;8.75;7.25;;;;;34.94;29.08;100931.47;144159;585;132012;-69
2021/08/20 11:40:13;;;;;;;;;7.75;7.75;;;;;34.78;29.41;100927.16;144163;609;132014;-70
2021/08/20 11:43:06;;;;;;;;;3.00;3.00;;;;;34.79;29.43;100920.63;144159;573;132910;-70
2021/08/20 11:45:41;;;;;;;;;6.75;6.75;;;;;34.30;30.41;100909.53;144172;595;132020;-71
2021/08/20 11:48:16;;;;;;;;;6.75;6.75;;;;;34.98;29.03;100919.97;144160;626;132012;-70
2021/08/20 11:50:50;;;;;;;;;7.50;6.50;;;;;35.10;28.36;100914.78;144177;652;132010;-69
2021/08/20 11:53:28;;;;;;;;;8.00;8.00;;;;;34.54;29.56;100904.72;144157;593;132018;-70
2021/08/20 11:56:18;;;;;;;;;6.00;6.00;;;;;34.48;29.37;100910.97;144179;571;132010;-70
2021/08/20 11:58:52;;;;;;;;;8.00;8.00;;;;;34.51;30.08;100911.41;144163;613;133018;-69
2021/08/20 12:01:34;;;;;;;;;6.00;6.00;;;;;35.06;29.03;100897.13;144180;639;132011;-71
2021/08/20 12:04:10;;;;;;;;;8.50;8.50;;;;;34.40;29.71;100901.87;144158;584;132014;-70
2021/08/20 12:06:47;;;;;;;;;7.00;7.00;;;;;34.23;30.46;100900.44;144164;631;132010;-70
2021/08/20 12:09:23;;;;;;;;;9.00;9.00;;;;;33.88;30.30;100917.44;144158;613;132019;-70
2021/08/20 12:11:59;;;;;;;;;10.50;10.50;;;;;33.56;31.22;100886.06;144176;774;132010;-69
2021/08/20 12:14:33;;;;;;;;;9.00;8.75;;;;;32.10;33.49;100928.84;144147;619;132014;-72
2021/08/20 12:17:14;;;;;;;;;9.75;9.75;;;;;33.57;31.47;100899.47;144173;625;132011;-71
2021/08/20 12:19:48;;;;;;;;;8.00;8.00;;;;;33.12;32.38;100895.06;144152;627;132910;-70
2021/08/20 12:22:22;;;;;;;;;10.50;10.50;;;;;34.34;29.67;100891.75;144174;636;131020;-70
2021/08/20 12:24:56;;;;;;;;;8.00;8.00;;;;;34.12;30.74;100888.19;144174;628;132910;-70
2021/08/20 12:27:32;;;;;;;;;8.75;8.75;;;;;33.91;30.25;100894.44;144176;570;132012;-71
2021/08/20 12:30:15;;;;;;;;;9.50;9.00;;;;;33.37;30.91;100879.34;144154;608;132020;-70
2021/08/20 12:33:00;;;;;;;;;9.25;9.25;;;;;34.79;29.45;100879.72;144159;604;132014;-71
2021/08/20 12:35:35;;;;;;;;;9.25;8.00;;;;;33.10;31.49;100883.53;144156;570;132018;-69
2021/08/20 12:38:25;;;;;;;;;10.25;9.25;;;;;34.13;30.54;100878.13;144173;567;132012;-70
2021/08/20 12:41:07;;;;;;;;;9.50;8.25;;;;;33.92;30.42;100873.50;144149;625;132910;-70
2021/08/20 12:43:43;;;;;;;;;10.00;9.50;;;;;35.15;28.98;100879.56;144173;643;132010;-71
2021/08/20 12:46:22;;;;;;;;;6.00;5.25;;;;;35.65;27.77;100884.00;144159;605;132019;-70
2021/08/20 12:49:07;;;;;;;;;12.00;8.00;;;;;34.98;28.50;100859.12;144171;629;132012;-70
2021/08/20 12:51:42;;;;;;;;;9.25;8.25;;;;;35.15;28.58;100857.75;144165;594;132018;-71
2021/08/20 12:54:21;;;;;;;;;7.50;6.75;;;;;34.47;29.81;100862.94;144181;606;131021;-70
2021/08/20 12:57:07;;;;;;;;;8.00;8.00;;;;;34.41;29.58;100856.41;144157;640;132910;-70
2021/08/20 12:59:41;;;;;;;;;7.50;7.50;;;;;34.53;29.37;100843.06;144162;613;132010;-69
2021/08/20 13:02:15;;;;;;;;;6.25;6.25;;;;;34.04;30.43;100836.56;144155;623;132911;-70
2021/08/20 13:04:49;;;;;;;;;8.00;8.00;;;;;33.84;31.65;100845.34;144175;638;132010;-70
2021/08/20 13:07:23;;;;;;;;;8.00;7.75;;;;;34.19;30.89;100831.03;144161;642;132012;-70
2021/08/20 13:09:57;;;;;;;;;8.00;8.00;;;;;33.98;30.79;100838.19;144184;748;132010;-71
2021/08/20 13:12:31;;;;;;;;;9.00;9.00;;;;;33.55;31.70;100838.09;144158;652;131910;-70
2021/08/20 13:15:05;;;;;;;;;10.75;9.75;;;;;34.03;30.83;100810.34;144170;608;132010;-71
2021/08/20 13:17:39;;;;;;;;;8.00;7.00;;;;;34.14;30.43;100820.72;144167;621;132012;-72
2021/08/20 13:20:14;;;;;;;;;4.50;4.50;;;;;34.28;30.72;100824.38;144179;614;132014;-71
2021/08/20 13:22:48;;;;;;;;;10.50;9.25;;;;;34.97;28.95;100820.09;144158;628;131910;-71
2021/08/20 13:25:22;;;;;;;;;11.75;11.00;;;;;34.24;30.52;100807.63;144154;583;132010;-71
2021/08/20 13:27:56;;;;;;;;;8.50;8.50;;;;;33.65;31.37;100797.78;144159;638;132018;-71